sensor_id;sensor_type;location;lat;lon;timestamp;P1;durP1;ratioP1;P2;durP2;ratioP2
31224;SDS011;17847;31.524;74.366;2023-05-14T00:00:46;7.80;;;4.50;;
31224;SDS011;17847;31.524;74.366;2023-05-14T00:03:16;8.82;;;4.30;;
31224;SDS011;17847;31.524;74.366;2023-05-14T00:05:46;13.20;;;4.68;;
31224;SDS011;17847;31.524;74.366;2023-05-14T00:08:16;9.32;;;5.38;;
31224;SDS011;17847;31.524;74.366;2023-05-14T00:10:45;15.75;;;5.50;;
31224;SDS011;17847;31.524;74.366;2023-05-14T00:13:14;15.15;;;5.95;;
31224;SDS011;17847;31.524;74.366;2023-05-14T00:15:44;13.73;;;5.88;;
31224;SDS011;17847;31.524;74.366;2023-05-14T00:18:13;15.65;;;6.72;;
31224;SDS011;17847;31.524;74.366;2023-05-14T00:20:43;29.92;;;7.40;;
31224;SDS011;17847;31.524;74.366;2023-05-14T00:23:12;31.30;;;8.60;;
31224;SDS011;17847;31.524;74.366;2023-05-14T00:25:41;23.38;;;6.85;;
31224;SDS011;17847;31.524;74.366;2023-05-14T00:28:11;19.17;;;7.22;;
31224;SDS011;17847;31.524;74.366;2023-05-14T00:30:40;25.85;;;9.25;;
31224;SDS011;17847;31.524;74.366;2023-05-14T00:33:10;26.42;;;10.80;;
31224;SDS011;17847;31.524;74.366;2023-05-14T00:35:39;31.73;;;11.18;;
31224;SDS011;17847;31.524;74.366;2023-05-14T00:38:08;34.58;;;11.93;;
31224;SDS011;17847;31.524;74.366;2023-05-14T00:40:44;33.60;;;10.75;;
31224;SDS011;17847;31.524;74.366;2023-05-14T00:43:19;26.20;;;9.75;;
31224;SDS011;17847;31.524;74.366;2023-05-14T00:45:51;28.67;;;10.48;;
31224;SDS011;17847;31.524;74.366;2023-05-14T00:48:21;27.48;;;11.02;;
31224;SDS011;17847;31.524;74.366;2023-05-14T00:50:52;32.90;;;11.02;;
31224;SDS011;17847;31.524;74.366;2023-05-14T00:53:22;23.13;;;9.75;;
31224;SDS011;17847;31.524;74.366;2023-05-14T00:55:51;30.88;;;9.88;;
31224;SDS011;17847;31.524;74.366;2023-05-14T00:58:21;26.67;;;9.77;;
31224;SDS011;17847;31.524;74.366;2023-05-14T01:00:51;32.30;;;10.57;;
31224;SDS011;17847;31.524;74.366;2023-05-14T01:03:20;23.45;;;10.40;;
31224;SDS011;17847;31.524;74.366;2023-05-14T01:14:27;28.38;;;12.02;;
31224;SDS011;17847;31.524;74.366;2023-05-14T01:17:19;27.50;;;10.68;;
31224;SDS011;17847;31.524;74.366;2023-05-14T01:19:50;29.98;;;10.85;;
31224;SDS011;17847;31.524;74.366;2023-05-14T01:22:21;29.75;;;10.40;;
31224;SDS011;17847;31.524;74.366;2023-05-14T01:24:50;30.38;;;10.90;;
31224;SDS011;17847;31.524;74.366;2023-05-14T01:32:47;25.45;;;9.88;;
31224;SDS011;17847;31.524;74.366;2023-05-14T01:35:21;26.75;;;10.80;;
31224;SDS011;17847;31.524;74.366;2023-05-14T01:37:57;31.40;;;10.80;;
31224;SDS011;17847;31.524;74.366;2023-05-14T01:40:28;26.17;;;11.20;;
31224;SDS011;17847;31.524;74.366;2023-05-14T01:42:59;32.38;;;11.10;;
31224;SDS011;17847;31.524;74.366;2023-05-14T01:45:33;25.52;;;11.60;;
31224;SDS011;17847;31.524;74.366;2023-05-14T01:48:03;27.35;;;11.30;;
31224;SDS011;17847;31.524;74.366;2023-05-14T01:50:33;25.23;;;11.35;;
31224;SDS011;17847;31.524;74.366;2023-05-14T01:53:03;24.95;;;10.35;;
31224;SDS011;17847;31.524;74.366;2023-05-14T01:55:35;19.08;;;10.20;;
31224;SDS011;17847;31.524;74.366;2023-05-14T01:58:05;24.58;;;10.60;;
31224;SDS011;17847;31.524;74.366;2023-05-14T02:00:34;25.40;;;10.43;;
31224;SDS011;17847;31.524;74.366;2023-05-14T02:03:04;21.27;;;10.48;;
31224;SDS011;17847;31.524;74.366;2023-05-14T02:05:33;16.02;;;8.85;;
31224;SDS011;17847;31.524;74.366;2023-05-14T02:08:02;23.42;;;9.02;;
31224;SDS011;17847;31.524;74.366;2023-05-14T02:10:36;26.38;;;8.68;;
31224;SDS011;17847;31.524;74.366;2023-05-14T02:13:06;17.45;;;7.65;;
31224;SDS011;17847;31.524;74.366;2023-05-14T02:15:37;22.08;;;7.35;;
31224;SDS011;17847;31.524;74.366;2023-05-14T02:18:06;22.92;;;6.55;;
31224;SDS011;17847;31.524;74.366;2023-05-14T02:20:35;20.95;;;6.65;;
31224;SDS011;17847;31.524;74.366;2023-05-14T02:23:05;19.50;;;6.03;;
31224;SDS011;17847;31.524;74.366;2023-05-14T02:25:34;15.02;;;5.88;;
31224;SDS011;17847;31.524;74.366;2023-05-14T02:28:03;16.88;;;5.70;;
31224;SDS011;17847;31.524;74.366;2023-05-14T02:30:33;20.30;;;5.68;;
31224;SDS011;17847;31.524;74.366;2023-05-14T02:33:02;21.25;;;4.55;;
31224;SDS011;17847;31.524;74.366;2023-05-14T02:35:32;17.60;;;4.55;;
31224;SDS011;17847;31.524;74.366;2023-05-14T02:38:01;13.52;;;5.40;;
31224;SDS011;17847;31.524;74.366;2023-05-14T02:40:31;16.85;;;4.55;;
31224;SDS011;17847;31.524;74.366;2023-05-14T02:43:00;21.48;;;4.57;;
31224;SDS011;17847;31.524;74.366;2023-05-14T02:45:30;12.88;;;5.03;;
31224;SDS011;17847;31.524;74.366;2023-05-14T02:48:00;14.50;;;4.00;;
31224;SDS011;17847;31.524;74.366;2023-05-14T02:50:29;19.92;;;5.25;;
31224;SDS011;17847;31.524;74.366;2023-05-14T02:52:58;18.30;;;4.38;;
31224;SDS011;17847;31.524;74.366;2023-05-14T02:55:29;20.02;;;4.13;;
31224;SDS011;17847;31.524;74.366;2023-05-14T02:57:58;22.15;;;4.90;;
31224;SDS011;17847;31.524;74.366;2023-05-14T03:00:27;19.73;;;4.75;;
31224;SDS011;17847;31.524;74.366;2023-05-14T03:02:57;22.52;;;4.80;;
31224;SDS011;17847;31.524;74.366;2023-05-14T03:05:26;14.23;;;5.47;;
31224;SDS011;17847;31.524;74.366;2023-05-14T03:07:56;17.77;;;4.95;;
31224;SDS011;17847;31.524;74.366;2023-05-14T03:10:26;12.27;;;3.92;;
31224;SDS011;17847;31.524;74.366;2023-05-14T03:12:55;20.15;;;5.05;;
31224;SDS011;17847;31.524;74.366;2023-05-14T03:15:25;18.02;;;4.47;;
31224;SDS011;17847;31.524;74.366;2023-05-14T03:17:54;28.00;;;4.88;;
31224;SDS011;17847;31.524;74.366;2023-05-14T03:20:25;13.68;;;4.35;;
31224;SDS011;17847;31.524;74.366;2023-05-14T03:22:54;16.88;;;4.50;;
31224;SDS011;17847;31.524;74.366;2023-05-14T03:25:24;18.17;;;5.28;;
31224;SDS011;17847;31.524;74.366;2023-05-14T03:27:53;11.45;;;4.22;;
31224;SDS011;17847;31.524;74.366;2023-05-14T03:30:23;19.17;;;4.22;;
31224;SDS011;17847;31.524;74.366;2023-05-14T03:32:53;12.80;;;4.20;;
31224;SDS011;17847;31.524;74.366;2023-05-14T03:35:24;18.65;;;4.95;;
31224;SDS011;17847;31.524;74.366;2023-05-14T03:37:53;18.95;;;4.28;;
31224;SDS011;17847;31.524;74.366;2023-05-14T03:40:25;16.93;;;4.80;;
31224;SDS011;17847;31.524;74.366;2023-05-14T03:42:55;26.15;;;4.65;;
31224;SDS011;17847;31.524;74.366;2023-05-14T03:45:25;22.45;;;4.40;;
31224;SDS011;17847;31.524;74.366;2023-05-14T03:47:57;9.73;;;3.93;;
31224;SDS011;17847;31.524;74.366;2023-05-14T03:50:28;14.23;;;4.10;;
31224;SDS011;17847;31.524;74.366;2023-05-14T03:52:58;25.30;;;5.47;;
31224;SDS011;17847;31.524;74.366;2023-05-14T03:55:29;14.00;;;3.92;;
31224;SDS011;17847;31.524;74.366;2023-05-14T03:57:58;15.48;;;3.97;;
31224;SDS011;17847;31.524;74.366;2023-05-14T04:00:28;12.63;;;4.43;;
31224;SDS011;17847;31.524;74.366;2023-05-14T04:02:57;14.80;;;3.88;;
31224;SDS011;17847;31.524;74.366;2023-05-14T04:05:27;12.68;;;3.25;;
31224;SDS011;17847;31.524;74.366;2023-05-14T04:07:56;10.48;;;3.63;;
31224;SDS011;17847;31.524;74.366;2023-05-14T04:10:26;8.63;;;3.35;;
31224;SDS011;17847;31.524;74.366;2023-05-14T04:12:55;12.38;;;3.17;;
31224;SDS011;17847;31.524;74.366;2023-05-14T04:15:29;12.68;;;3.42;;
31224;SDS011;17847;31.524;74.366;2023-05-14T04:17:59;11.23;;;3.65;;
31224;SDS011;17847;31.524;74.366;2023-05-14T04:20:28;12.02;;;3.90;;
31224;SDS011;17847;31.524;74.366;2023-05-14T04:22:58;12.80;;;3.38;;
31224;SDS011;17847;31.524;74.366;2023-05-14T04:25:27;6.95;;;3.42;;
31224;SDS011;17847;31.524;74.366;2023-05-14T04:27:58;12.05;;;3.33;;
31224;SDS011;17847;31.524;74.366;2023-05-14T04:30:28;8.35;;;3.53;;
31224;SDS011;17847;31.524;74.366;2023-05-14T04:32:58;6.45;;;3.15;;
31224;SDS011;17847;31.524;74.366;2023-05-14T04:35:27;13.45;;;3.00;;
31224;SDS011;17847;31.524;74.366;2023-05-14T04:37:57;14.55;;;3.28;;
31224;SDS011;17847;31.524;74.366;2023-05-14T04:40:27;14.48;;;3.53;;
31224;SDS011;17847;31.524;74.366;2023-05-14T04:42:58;9.20;;;3.05;;
31224;SDS011;17847;31.524;74.366;2023-05-14T04:45:28;16.63;;;3.35;;
31224;SDS011;17847;31.524;74.366;2023-05-14T04:48:00;24.67;;;4.30;;
31224;SDS011;17847;31.524;74.366;2023-05-14T04:50:31;13.18;;;3.50;;
31224;SDS011;17847;31.524;74.366;2023-05-14T04:53:00;7.78;;;3.38;;
31224;SDS011;17847;31.524;74.366;2023-05-14T04:58:31;14.13;;;3.75;;
31224;SDS011;17847;31.524;74.366;2023-05-14T05:01:02;8.02;;;3.42;;
31224;SDS011;17847;31.524;74.366;2023-05-14T05:03:33;17.35;;;3.65;;
31224;SDS011;17847;31.524;74.366;2023-05-14T05:06:02;6.50;;;3.40;;
31224;SDS011;17847;31.524;74.366;2023-05-14T05:08:32;8.00;;;3.60;;
31224;SDS011;17847;31.524;74.366;2023-05-14T05:11:01;14.23;;;4.25;;
31224;SDS011;17847;31.524;74.366;2023-05-14T05:13:30;8.52;;;4.07;;
31224;SDS011;17847;31.524;74.366;2023-05-14T05:15:59;8.63;;;4.05;;
31224;SDS011;17847;31.524;74.366;2023-05-14T05:18:30;14.70;;;4.50;;
31224;SDS011;17847;31.524;74.366;2023-05-14T05:20:59;10.63;;;4.03;;
31224;SDS011;17847;31.524;74.366;2023-05-14T05:23:28;7.45;;;4.60;;
31224;SDS011;17847;31.524;74.366;2023-05-14T05:25:58;9.63;;;4.93;;
31224;SDS011;17847;31.524;74.366;2023-05-14T05:28:27;13.27;;;5.07;;
31224;SDS011;17847;31.524;74.366;2023-05-14T05:30:56;8.85;;;4.50;;
31224;SDS011;17847;31.524;74.366;2023-05-14T05:33:26;11.13;;;4.90;;
31224;SDS011;17847;31.524;74.366;2023-05-14T05:35:55;10.27;;;5.25;;
31224;SDS011;17847;31.524;74.366;2023-05-14T05:38:25;11.80;;;5.38;;
31224;SDS011;17847;31.524;74.366;2023-05-14T05:40:54;12.88;;;5.97;;
31224;SDS011;17847;31.524;74.366;2023-05-14T05:43:23;14.50;;;6.78;;
31224;SDS011;17847;31.524;74.366;2023-05-14T05:45:53;13.10;;;7.63;;
31224;SDS011;17847;31.524;74.366;2023-05-14T05:48:22;9.60;;;6.65;;
31224;SDS011;17847;31.524;74.366;2023-05-14T05:50:51;15.68;;;6.88;;
31224;SDS011;17847;31.524;74.366;2023-05-14T05:53:20;11.27;;;6.13;;
31224;SDS011;17847;31.524;74.366;2023-05-14T05:55:50;13.98;;;6.40;;
31224;SDS011;17847;31.524;74.366;2023-05-14T05:58:19;14.48;;;6.97;;
31224;SDS011;17847;31.524;74.366;2023-05-14T06:00:51;15.32;;;7.78;;
31224;SDS011;17847;31.524;74.366;2023-05-14T06:03:21;14.93;;;8.00;;
31224;SDS011;17847;31.524;74.366;2023-05-14T06:05:51;12.13;;;6.97;;
31224;SDS011;17847;31.524;74.366;2023-05-14T06:08:21;11.43;;;6.32;;
31224;SDS011;17847;31.524;74.366;2023-05-14T06:10:50;13.70;;;5.78;;
31224;SDS011;17847;31.524;74.366;2023-05-14T06:13:20;12.35;;;6.78;;
31224;SDS011;17847;31.524;74.366;2023-05-14T06:15:49;15.40;;;5.95;;
31224;SDS011;17847;31.524;74.366;2023-05-14T06:18:18;9.35;;;5.70;;
31224;SDS011;17847;31.524;74.366;2023-05-14T06:20:48;21.77;;;5.93;;
31224;SDS011;17847;31.524;74.366;2023-05-14T06:23:17;11.63;;;5.75;;
31224;SDS011;17847;31.524;74.366;2023-05-14T06:25:48;14.77;;;6.10;;
31224;SDS011;17847;31.524;74.366;2023-05-14T06:28:18;8.55;;;6.05;;
31224;SDS011;17847;31.524;74.366;2023-05-14T06:30:50;11.63;;;6.28;;
31224;SDS011;17847;31.524;74.366;2023-05-14T06:33:21;12.02;;;6.22;;
31224;SDS011;17847;31.524;74.366;2023-05-14T06:35:57;11.80;;;5.95;;
31224;SDS011;17847;31.524;74.366;2023-05-14T06:38:31;15.32;;;5.45;;
31224;SDS011;17847;31.524;74.366;2023-05-14T06:41:01;14.38;;;6.63;;
31224;SDS011;17847;31.524;74.366;2023-05-14T06:43:33;13.00;;;5.47;;
31224;SDS011;17847;31.524;74.366;2023-05-14T06:46:03;7.43;;;5.63;;
31224;SDS011;17847;31.524;74.366;2023-05-14T06:48:32;13.73;;;5.72;;
31224;SDS011;17847;31.524;74.366;2023-05-14T06:51:02;11.52;;;5.93;;
31224;SDS011;17847;31.524;74.366;2023-05-14T06:53:32;15.65;;;6.03;;
31224;SDS011;17847;31.524;74.366;2023-05-14T06:56:07;9.60;;;5.95;;
31224;SDS011;17847;31.524;74.366;2023-05-14T06:58:37;10.70;;;6.13;;
31224;SDS011;17847;31.524;74.366;2023-05-14T07:01:07;9.27;;;5.90;;
31224;SDS011;17847;31.524;74.366;2023-05-14T07:03:37;13.27;;;6.47;;
31224;SDS011;17847;31.524;74.366;2023-05-14T07:06:07;16.48;;;6.35;;
31224;SDS011;17847;31.524;74.366;2023-05-14T07:08:39;15.98;;;6.55;;
31224;SDS011;17847;31.524;74.366;2023-05-14T07:11:09;10.82;;;6.05;;
31224;SDS011;17847;31.524;74.366;2023-05-14T07:13:41;14.90;;;6.32;;
31224;SDS011;17847;31.524;74.366;2023-05-14T07:16:11;18.90;;;6.57;;
31224;SDS011;17847;31.524;74.366;2023-05-14T07:18:40;13.18;;;6.07;;
31224;SDS011;17847;31.524;74.366;2023-05-14T07:21:12;8.55;;;6.50;;
31224;SDS011;17847;31.524;74.366;2023-05-14T07:23:42;12.45;;;6.47;;
31224;SDS011;17847;31.524;74.366;2023-05-14T07:26:13;14.70;;;6.93;;
31224;SDS011;17847;31.524;74.366;2023-05-14T07:28:43;9.13;;;5.95;;
31224;SDS011;17847;31.524;74.366;2023-05-14T07:31:14;12.15;;;6.57;;
31224;SDS011;17847;31.524;74.366;2023-05-14T07:33:44;11.82;;;6.38;;
31224;SDS011;17847;31.524;74.366;2023-05-14T07:36:14;15.43;;;6.82;;
31224;SDS011;17847;31.524;74.366;2023-05-14T07:38:44;12.00;;;6.57;;
31224;SDS011;17847;31.524;74.366;2023-05-14T07:41:15;10.77;;;6.75;;
31224;SDS011;17847;31.524;74.366;2023-05-14T07:43:47;10.85;;;6.45;;
31224;SDS011;17847;31.524;74.366;2023-05-14T07:46:17;13.90;;;7.00;;
31224;SDS011;17847;31.524;74.366;2023-05-14T07:48:48;11.20;;;6.75;;
31224;SDS011;17847;31.524;74.366;2023-05-14T07:51:19;10.50;;;6.28;;
31224;SDS011;17847;31.524;74.366;2023-05-14T07:53:49;11.82;;;6.60;;
31224;SDS011;17847;31.524;74.366;2023-05-14T07:56:21;11.00;;;6.85;;
31224;SDS011;17847;31.524;74.366;2023-05-14T07:58:51;13.43;;;6.28;;
31224;SDS011;17847;31.524;74.366;2023-05-14T08:01:23;13.25;;;6.47;;
31224;SDS011;17847;31.524;74.366;2023-05-14T08:03:55;12.02;;;6.72;;
31224;SDS011;17847;31.524;74.366;2023-05-14T08:06:25;16.05;;;6.72;;
31224;SDS011;17847;31.524;74.366;2023-05-14T08:08:57;13.65;;;7.32;;
31224;SDS011;17847;31.524;74.366;2023-05-14T08:11:27;13.05;;;6.30;;
31224;SDS011;17847;31.524;74.366;2023-05-14T08:13:57;12.10;;;6.70;;
31224;SDS011;17847;31.524;74.366;2023-05-14T08:16:28;15.27;;;6.38;;
31224;SDS011;17847;31.524;74.366;2023-05-14T08:19:02;12.75;;;6.90;;
31224;SDS011;17847;31.524;74.366;2023-05-14T08:21:33;10.55;;;6.82;;
31224;SDS011;17847;31.524;74.366;2023-05-14T08:24:03;8.27;;;6.18;;
31224;SDS011;17847;31.524;74.366;2023-05-14T08:26:34;11.10;;;6.82;;
31224;SDS011;17847;31.524;74.366;2023-05-14T08:29:07;11.25;;;7.35;;
31224;SDS011;17847;31.524;74.366;2023-05-14T08:31:39;11.70;;;6.63;;
31224;SDS011;17847;31.524;74.366;2023-05-14T08:34:09;13.70;;;7.20;;
31224;SDS011;17847;31.524;74.366;2023-05-14T08:36:40;12.88;;;6.43;;
31224;SDS011;17847;31.524;74.366;2023-05-14T08:39:11;14.77;;;6.53;;
31224;SDS011;17847;31.524;74.366;2023-05-14T08:41:41;14.63;;;6.57;;
31224;SDS011;17847;31.524;74.366;2023-05-14T08:44:17;13.20;;;7.53;;
31224;SDS011;17847;31.524;74.366;2023-05-14T08:46:48;11.27;;;6.50;;
31224;SDS011;17847;31.524;74.366;2023-05-14T08:52:13;14.75;;;6.70;;
31224;SDS011;17847;31.524;74.366;2023-05-14T08:54:47;10.23;;;6.40;;
31224;SDS011;17847;31.524;74.366;2023-05-14T08:57:24;12.68;;;7.03;;
31224;SDS011;17847;31.524;74.366;2023-05-14T08:59:55;10.07;;;6.85;;
31224;SDS011;17847;31.524;74.366;2023-05-14T09:02:29;11.13;;;7.18;;
31224;SDS011;17847;31.524;74.366;2023-05-14T09:05:00;14.77;;;7.65;;
31224;SDS011;17847;31.524;74.366;2023-05-14T09:07:32;10.20;;;6.78;;
31224;SDS011;17847;31.524;74.366;2023-05-14T09:10:03;15.00;;;7.30;;
31224;SDS011;17847;31.524;74.366;2023-05-14T09:12:34;12.40;;;6.57;;
31224;SDS011;17847;31.524;74.366;2023-05-14T09:15:06;11.80;;;6.78;;
31224;SDS011;17847;31.524;74.366;2023-05-14T09:17:36;14.00;;;7.05;;
31224;SDS011;17847;31.524;74.366;2023-05-14T09:20:07;11.95;;;7.13;;
31224;SDS011;17847;31.524;74.366;2023-05-14T09:22:40;10.32;;;6.82;;
31224;SDS011;17847;31.524;74.366;2023-05-14T09:25:11;12.65;;;6.80;;
31224;SDS011;17847;31.524;74.366;2023-05-14T09:27:45;11.30;;;7.05;;
31224;SDS011;17847;31.524;74.366;2023-05-14T09:30:18;14.15;;;6.72;;
31224;SDS011;17847;31.524;74.366;2023-05-14T09:32:52;17.50;;;6.78;;
31224;SDS011;17847;31.524;74.366;2023-05-14T09:35:24;13.35;;;8.20;;
31224;SDS011;17847;31.524;74.366;2023-05-14T09:37:55;16.48;;;7.68;;
31224;SDS011;17847;31.524;74.366;2023-05-14T09:40:26;15.02;;;7.65;;
31224;SDS011;17847;31.524;74.366;2023-05-14T09:42:57;11.68;;;7.47;;
31224;SDS011;17847;31.524;74.366;2023-05-14T09:45:29;15.80;;;7.17;;
31224;SDS011;17847;31.524;74.366;2023-05-14T09:47:59;13.98;;;7.28;;
31224;SDS011;17847;31.524;74.366;2023-05-14T09:50:41;13.77;;;6.57;;
31224;SDS011;17847;31.524;74.366;2023-05-14T09:53:13;18.58;;;6.65;;
31224;SDS011;17847;31.524;74.366;2023-05-14T09:55:47;15.07;;;7.30;;
31224;SDS011;17847;31.524;74.366;2023-05-14T09:58:17;14.38;;;7.43;;
31224;SDS011;17847;31.524;74.366;2023-05-14T10:00:50;11.55;;;7.18;;
31224;SDS011;17847;31.524;74.366;2023-05-14T10:03:24;14.40;;;6.70;;
31224;SDS011;17847;31.524;74.366;2023-05-14T10:06:05;14.35;;;6.68;;
31224;SDS011;17847;31.524;74.366;2023-05-14T10:08:35;9.85;;;6.28;;
31224;SDS011;17847;31.524;74.366;2023-05-14T10:11:13;12.18;;;7.25;;
31224;SDS011;17847;31.524;74.366;2023-05-14T10:13:54;16.38;;;7.53;;
31224;SDS011;17847;31.524;74.366;2023-05-14T10:16:32;13.88;;;7.13;;
31224;SDS011;17847;31.524;74.366;2023-05-14T10:19:12;12.07;;;7.00;;
31224;SDS011;17847;31.524;74.366;2023-05-14T10:21:44;18.88;;;7.47;;
31224;SDS011;17847;31.524;74.366;2023-05-14T10:24:19;15.80;;;7.43;;
31224;SDS011;17847;31.524;74.366;2023-05-14T10:26:52;17.02;;;7.32;;
31224;SDS011;17847;31.524;74.366;2023-05-14T10:29:31;15.27;;;7.55;;
31224;SDS011;17847;31.524;74.366;2023-05-14T10:32:07;14.25;;;7.38;;
31224;SDS011;17847;31.524;74.366;2023-05-14T10:34:42;12.20;;;7.25;;
31224;SDS011;17847;31.524;74.366;2023-05-14T10:37:16;13.00;;;7.95;;
31224;SDS011;17847;31.524;74.366;2023-05-14T10:39:51;13.75;;;6.72;;
31224;SDS011;17847;31.524;74.366;2023-05-14T10:45:03;12.77;;;7.22;;
31224;SDS011;17847;31.524;74.366;2023-05-14T10:47:38;16.65;;;7.20;;
31224;SDS011;17847;31.524;74.366;2023-05-14T10:50:11;13.32;;;6.80;;
31224;SDS011;17847;31.524;74.366;2023-05-14T10:52:47;11.32;;;7.05;;
31224;SDS011;17847;31.524;74.366;2023-05-14T10:55:19;14.50;;;7.40;;
31224;SDS011;17847;31.524;74.366;2023-05-14T11:00:24;18.10;;;8.02;;
31224;SDS011;17847;31.524;74.366;2023-05-14T11:05:27;16.90;;;7.25;;
31224;SDS011;17847;31.524;74.366;2023-05-14T11:08:03;9.90;;;6.45;;
31224;SDS011;17847;31.524;74.366;2023-05-14T11:10:38;16.35;;;6.80;;
31224;SDS011;17847;31.524;74.366;2023-05-14T11:13:11;13.90;;;6.55;;
31224;SDS011;17847;31.524;74.366;2023-05-14T11:15:45;12.00;;;6.65;;
31224;SDS011;17847;31.524;74.366;2023-05-14T11:18:27;12.27;;;7.03;;
31224;SDS011;17847;31.524;74.366;2023-05-14T11:21:05;17.00;;;6.88;;
31224;SDS011;17847;31.524;74.366;2023-05-14T11:23:36;14.40;;;6.60;;
31224;SDS011;17847;31.524;74.366;2023-05-14T11:26:07;22.23;;;6.85;;
31224;SDS011;17847;31.524;74.366;2023-05-14T11:28:39;11.85;;;6.40;;
31224;SDS011;17847;31.524;74.366;2023-05-14T11:31:12;15.35;;;6.78;;
31224;SDS011;17847;31.524;74.366;2023-05-14T11:33:43;14.43;;;6.60;;
31224;SDS011;17847;31.524;74.366;2023-05-14T11:36:19;13.65;;;6.47;;
31224;SDS011;17847;31.524;74.366;2023-05-14T11:38:51;13.10;;;6.30;;
31224;SDS011;17847;31.524;74.366;2023-05-14T11:41:22;16.40;;;6.05;;
31224;SDS011;17847;31.524;74.366;2023-05-14T11:43:54;14.77;;;6.18;;
31224;SDS011;17847;31.524;74.366;2023-05-14T11:46:24;17.50;;;6.90;;
31224;SDS011;17847;31.524;74.366;2023-05-14T11:48:56;12.18;;;6.25;;
31224;SDS011;17847;31.524;74.366;2023-05-14T11:51:28;15.93;;;7.20;;
31224;SDS011;17847;31.524;74.366;2023-05-14T11:54:00;16.48;;;6.90;;
31224;SDS011;17847;31.524;74.366;2023-05-14T11:56:33;13.85;;;6.07;;
31224;SDS011;17847;31.524;74.366;2023-05-14T11:59:04;11.52;;;5.75;;
31224;SDS011;17847;31.524;74.366;2023-05-14T12:01:35;12.20;;;6.28;;
31224;SDS011;17847;31.524;74.366;2023-05-14T12:04:12;9.63;;;5.93;;
31224;SDS011;17847;31.524;74.366;2023-05-14T12:06:43;19.63;;;6.73;;
31224;SDS011;17847;31.524;74.366;2023-05-14T12:09:20;16.60;;;7.10;;
31224;SDS011;17847;31.524;74.366;2023-05-14T12:11:51;13.93;;;6.32;;
31224;SDS011;17847;31.524;74.366;2023-05-14T12:14:22;20.45;;;7.07;;
31224;SDS011;17847;31.524;74.366;2023-05-14T12:16:53;13.13;;;6.77;;
31224;SDS011;17847;31.524;74.366;2023-05-14T12:19:24;17.52;;;6.93;;
31224;SDS011;17847;31.524;74.366;2023-05-14T12:21:55;18.35;;;6.50;;
31224;SDS011;17847;31.524;74.366;2023-05-14T12:24:30;22.85;;;6.30;;
31224;SDS011;17847;31.524;74.366;2023-05-14T12:27:01;12.80;;;6.82;;
31224;SDS011;17847;31.524;74.366;2023-05-14T12:29:36;15.60;;;6.95;;
31224;SDS011;17847;31.524;74.366;2023-05-14T12:32:08;17.42;;;7.95;;
31224;SDS011;17847;31.524;74.366;2023-05-14T12:34:39;13.70;;;6.50;;
31224;SDS011;17847;31.524;74.366;2023-05-14T12:37:09;15.52;;;7.25;;
31224;SDS011;17847;31.524;74.366;2023-05-14T12:39:39;14.52;;;7.85;;
31224;SDS011;17847;31.524;74.366;2023-05-14T12:42:10;17.73;;;7.20;;
31224;SDS011;17847;31.524;74.366;2023-05-14T12:44:40;15.30;;;7.80;;
31224;SDS011;17847;31.524;74.366;2023-05-14T12:47:09;22.17;;;8.55;;
31224;SDS011;17847;31.524;74.366;2023-05-14T12:49:39;15.70;;;7.82;;
31224;SDS011;17847;31.524;74.366;2023-05-14T12:52:09;18.67;;;7.18;;
31224;SDS011;17847;31.524;74.366;2023-05-14T12:54:41;14.70;;;7.30;;
31224;SDS011;17847;31.524;74.366;2023-05-14T12:57:11;16.40;;;7.68;;
31224;SDS011;17847;31.524;74.366;2023-05-14T12:59:41;31.42;;;10.27;;
31224;SDS011;17847;31.524;74.366;2023-05-14T13:02:11;21.17;;;8.88;;
31224;SDS011;17847;31.524;74.366;2023-05-14T13:04:43;17.02;;;8.50;;
31224;SDS011;17847;31.524;74.366;2023-05-14T13:07:13;17.10;;;8.50;;
31224;SDS011;17847;31.524;74.366;2023-05-14T13:09:42;21.60;;;8.18;;
31224;SDS011;17847;31.524;74.366;2023-05-14T13:12:12;18.90;;;8.88;;
31224;SDS011;17847;31.524;74.366;2023-05-14T13:14:41;17.92;;;7.90;;
31224;SDS011;17847;31.524;74.366;2023-05-14T13:17:11;17.90;;;7.80;;
31224;SDS011;17847;31.524;74.366;2023-05-14T13:19:40;16.20;;;7.70;;
31224;SDS011;17847;31.524;74.366;2023-05-14T13:22:10;16.88;;;7.95;;
31224;SDS011;17847;31.524;74.366;2023-05-14T13:24:40;15.45;;;7.57;;
31224;SDS011;17847;31.524;74.366;2023-05-14T13:27:09;19.45;;;8.10;;
31224;SDS011;17847;31.524;74.366;2023-05-14T13:29:39;17.10;;;8.10;;
31224;SDS011;17847;31.524;74.366;2023-05-14T13:32:10;15.40;;;7.93;;
31224;SDS011;17847;31.524;74.366;2023-05-14T13:34:39;21.65;;;8.40;;
31224;SDS011;17847;31.524;74.366;2023-05-14T13:37:08;15.05;;;8.20;;
31224;SDS011;17847;31.524;74.366;2023-05-14T13:39:38;21.40;;;8.48;;
31224;SDS011;17847;31.524;74.366;2023-05-14T13:42:08;19.77;;;7.97;;
31224;SDS011;17847;31.524;74.366;2023-05-14T13:44:38;16.80;;;8.32;;
31224;SDS011;17847;31.524;74.366;2023-05-14T13:47:08;18.33;;;7.63;;
31224;SDS011;17847;31.524;74.366;2023-05-14T13:49:37;16.58;;;8.20;;
31224;SDS011;17847;31.524;74.366;2023-05-14T13:52:08;13.07;;;7.63;;
31224;SDS011;17847;31.524;74.366;2023-05-14T13:54:38;16.50;;;7.45;;
31224;SDS011;17847;31.524;74.366;2023-05-14T13:57:08;23.00;;;8.77;;
31224;SDS011;17847;31.524;74.366;2023-05-14T13:59:38;18.63;;;8.48;;
31224;SDS011;17847;31.524;74.366;2023-05-14T14:02:08;19.00;;;7.85;;
31224;SDS011;17847;31.524;74.366;2023-05-14T14:04:37;18.83;;;8.35;;
31224;SDS011;17847;31.524;74.366;2023-05-14T14:07:06;20.27;;;8.38;;
31224;SDS011;17847;31.524;74.366;2023-05-14T14:09:36;25.90;;;8.23;;
31224;SDS011;17847;31.524;74.366;2023-05-14T14:12:05;20.70;;;9.38;;
31224;SDS011;17847;31.524;74.366;2023-05-14T14:14:36;22.75;;;8.88;;
31224;SDS011;17847;31.524;74.366;2023-05-14T14:17:06;19.83;;;8.88;;
31224;SDS011;17847;31.524;74.366;2023-05-14T14:19:36;14.50;;;8.32;;
31224;SDS011;17847;31.524;74.366;2023-05-14T14:22:05;15.63;;;8.90;;
31224;SDS011;17847;31.524;74.366;2023-05-14T14:24:34;22.33;;;8.55;;
31224;SDS011;17847;31.524;74.366;2023-05-14T14:27:04;22.27;;;9.15;;
31224;SDS011;17847;31.524;74.366;2023-05-14T14:29:34;22.63;;;9.82;;
31224;SDS011;17847;31.524;74.366;2023-05-14T14:32:04;21.58;;;10.00;;
31224;SDS011;17847;31.524;74.366;2023-05-14T14:34:34;25.83;;;10.55;;
31224;SDS011;17847;31.524;74.366;2023-05-14T14:37:04;21.45;;;9.90;;
31224;SDS011;17847;31.524;74.366;2023-05-14T14:39:33;18.52;;;9.00;;
31224;SDS011;17847;31.524;74.366;2023-05-14T14:42:04;17.98;;;9.52;;
31224;SDS011;17847;31.524;74.366;2023-05-14T14:44:34;29.48;;;10.02;;
31224;SDS011;17847;31.524;74.366;2023-05-14T14:47:04;24.23;;;10.57;;
31224;SDS011;17847;31.524;74.366;2023-05-14T14:49:34;21.90;;;9.85;;
31224;SDS011;17847;31.524;74.366;2023-05-14T14:52:05;21.67;;;10.70;;
31224;SDS011;17847;31.524;74.366;2023-05-14T14:54:35;22.80;;;10.95;;
31224;SDS011;17847;31.524;74.366;2023-05-14T14:57:06;21.45;;;10.57;;
31224;SDS011;17847;31.524;74.366;2023-05-14T14:59:36;18.83;;;10.15;;
31224;SDS011;17847;31.524;74.366;2023-05-14T15:02:07;28.30;;;13.23;;
31224;SDS011;17847;31.524;74.366;2023-05-14T15:04:39;37.58;;;18.80;;
31224;SDS011;17847;31.524;74.366;2023-05-14T15:07:10;40.30;;;20.38;;
31224;SDS011;17847;31.524;74.366;2023-05-14T15:09:41;46.60;;;23.63;;